sensor_id;sensor_type;location;lat;lon;timestamp;temperature;humidity
38020;DHT22;23829;51.350;17.286;2024-01-25T00:02:01;20.80;38.70
38020;DHT22;23829;51.350;17.286;2024-01-25T00:04:28;20.80;38.30
38020;DHT22;23829;51.350;17.286;2024-01-25T00:06:55;20.70;38.60
38020;DHT22;23829;51.350;17.286;2024-01-25T00:09:21;20.40;39.40
38020;DHT22;23829;51.350;17.286;2024-01-25T00:11:48;20.60;38.60
38020;DHT22;23829;51.350;17.286;2024-01-25T00:14:14;20.50;38.80
38020;DHT22;23829;51.350;17.286;2024-01-25T00:16:41;20.50;38.60
38020;DHT22;23829;51.350;17.286;2024-01-25T00:19:07;20.60;38.20
38020;DHT22;23829;51.350;17.286;2024-01-25T00:21:34;20.00;39.40
38020;DHT22;23829;51.350;17.286;2024-01-25T00:24:00;20.10;39.00
38020;DHT22;23829;51.350;17.286;2024-01-25T00:26:26;20.40;38.80
38020;DHT22;23829;51.350;17.286;2024-01-25T00:28:52;20.20;38.40
38020;DHT22;23829;51.350;17.286;2024-01-25T00:31:19;20.00;38.70
38020;DHT22;23829;51.350;17.286;2024-01-25T00:33:45;20.20;38.50
38020;DHT22;23829;51.350;17.286;2024-01-25T00:36:12;20.40;38.10
38020;DHT22;23829;51.350;17.286;2024-01-25T00:38:38;20.50;37.50
38020;DHT22;23829;51.350;17.286;2024-01-25T00:41:08;20.60;37.20
38020;DHT22;23829;51.350;17.286;2024-01-25T00:43:35;20.80;37.20
38020;DHT22;23829;51.350;17.286;2024-01-25T00:46:01;20.70;37.00
38020;DHT22;23829;51.350;17.286;2024-01-25T00:48:28;20.50;37.40
38020;DHT22;23829;51.350;17.286;2024-01-25T00:50:55;20.00;37.60
38020;DHT22;23829;51.350;17.286;2024-01-25T00:53:21;20.10;37.90
38020;DHT22;23829;51.350;17.286;2024-01-25T00:55:48;20.20;37.50
38020;DHT22;23829;51.350;17.286;2024-01-25T00:58:14;19.70;38.10
38020;DHT22;23829;51.350;17.286;2024-01-25T01:00:41;19.60;38.50
38020;DHT22;23829;51.350;17.286;2024-01-25T01:03:07;19.50;39.00
38020;DHT22;23829;51.350;17.286;2024-01-25T01:05:34;19.00;40.80
38020;DHT22;23829;51.350;17.286;2024-01-25T01:08:01;19.00;40.90
38020;DHT22;23829;51.350;17.286;2024-01-25T01:10:27;19.20;40.60
38020;DHT22;23829;51.350;17.286;2024-01-25T01:12:53;19.30;40.80
38020;DHT22;23829;51.350;17.286;2024-01-25T01:15:20;19.20;41.10
38020;DHT22;23829;51.350;17.286;2024-01-25T01:17:46;19.50;40.70
38020;DHT22;23829;51.350;17.286;2024-01-25T01:20:13;20.10;39.50
38020;DHT22;23829;51.350;17.286;2024-01-25T01:22:39;20.00;39.20
38020;DHT22;23829;51.350;17.286;2024-01-25T01:25:05;19.80;39.00
38020;DHT22;23829;51.350;17.286;2024-01-25T01:27:31;19.20;40.50
38020;DHT22;23829;51.350;17.286;2024-01-25T01:29:58;19.70;39.90
38020;DHT22;23829;51.350;17.286;2024-01-25T01:32:24;19.70;39.60
38020;DHT22;23829;51.350;17.286;2024-01-25T01:34:50;20.10;39.30
38020;DHT22;23829;51.350;17.286;2024-01-25T01:37:16;20.50;38.50
38020;DHT22;23829;51.350;17.286;2024-01-25T01:39:43;20.40;38.00
38020;DHT22;23829;51.350;17.286;2024-01-25T01:42:09;20.50;38.30
38020;DHT22;23829;51.350;17.286;2024-01-25T01:44:35;20.80;37.50
38020;DHT22;23829;51.350;17.286;2024-01-25T01:47:02;21.20;37.10
38020;DHT22;23829;51.350;17.286;2024-01-25T01:49:28;20.30;38.00
38020;DHT22;23829;51.350;17.286;2024-01-25T01:51:55;20.60;37.90
38020;DHT22;23829;51.350;17.286;2024-01-25T01:54:21;20.60;38.00
38020;DHT22;23829;51.350;17.286;2024-01-25T01:56:48;21.00;37.20
38020;DHT22;23829;51.350;17.286;2024-01-25T01:59:15;21.10;36.50
38020;DHT22;23829;51.350;17.286;2024-01-25T02:01:42;21.00;36.20
38020;DHT22;23829;51.350;17.286;2024-01-25T02:04:08;21.40;35.60
38020;DHT22;23829;51.350;17.286;2024-01-25T02:06:34;21.50;34.70
38020;DHT22;23829;51.350;17.286;2024-01-25T02:09:01;21.30;35.10
38020;DHT22;23829;51.350;17.286;2024-01-25T02:11:28;20.90;35.50
38020;DHT22;23829;51.350;17.286;2024-01-25T02:13:55;20.60;35.70
38020;DHT22;23829;51.350;17.286;2024-01-25T02:16:21;20.90;35.20
38020;DHT22;23829;51.350;17.286;2024-01-25T02:18:48;20.70;34.90
38020;DHT22;23829;51.350;17.286;2024-01-25T02:21:14;20.40;35.70
38020;DHT22;23829;51.350;17.286;2024-01-25T02:23:41;20.30;35.50
38020;DHT22;23829;51.350;17.286;2024-01-25T02:26:07;20.30;35.60
38020;DHT22;23829;51.350;17.286;2024-01-25T02:28:33;20.60;35.30
38020;DHT22;23829;51.350;17.286;2024-01-25T02:31:02;20.70;34.80
38020;DHT22;23829;51.350;17.286;2024-01-25T02:33:29;20.40;35.00
38020;DHT22;23829;51.350;17.286;2024-01-25T02:35:55;20.00;36.00
38020;DHT22;23829;51.350;17.286;2024-01-25T02:38:21;20.00;36.50
38020;DHT22;23829;51.350;17.286;2024-01-25T02:40:48;20.70;35.90
38020;DHT22;23829;51.350;17.286;2024-01-25T02:43:14;20.50;35.00
38020;DHT22;23829;51.350;17.286;2024-01-25T02:45:40;20.40;35.20
38020;DHT22;23829;51.350;17.286;2024-01-25T02:48:07;20.40;35.60
38020;DHT22;23829;51.350;17.286;2024-01-25T02:50:33;20.30;35.40
38020;DHT22;23829;51.350;17.286;2024-01-25T02:52:59;20.20;35.10
38020;DHT22;23829;51.350;17.286;2024-01-25T02:55:25;20.20;35.20
38020;DHT22;23829;51.350;17.286;2024-01-25T02:57:52;19.90;35.70
38020;DHT22;23829;51.350;17.286;2024-01-25T03:00:18;20.00;36.30
38020;DHT22;23829;51.350;17.286;2024-01-25T03:02:44;20.00;36.00
38020;DHT22;23829;51.350;17.286;2024-01-25T03:05:10;20.00;36.00
38020;DHT22;23829;51.350;17.286;2024-01-25T03:07:37;20.20;35.90
38020;DHT22;23829;51.350;17.286;2024-01-25T03:10:04;20.20;35.30
38020;DHT22;23829;51.350;17.286;2024-01-25T03:12:30;19.90;35.50
38020;DHT22;23829;51.350;17.286;2024-01-25T03:14:57;20.20;35.80
38020;DHT22;23829;51.350;17.286;2024-01-25T03:17:23;20.30;35.50
38020;DHT22;23829;51.350;17.286;2024-01-25T03:19:49;20.30;35.50
38020;DHT22;23829;51.350;17.286;2024-01-25T03:22:16;20.50;35.20
38020;DHT22;23829;51.350;17.286;2024-01-25T03:24:42;20.60;35.40
38020;DHT22;23829;51.350;17.286;2024-01-25T03:27:08;20.40;35.40
38020;DHT22;23829;51.350;17.286;2024-01-25T03:29:42;20.40;35.50
38020;DHT22;23829;51.350;17.286;2024-01-25T03:32:09;20.30;35.60
38020;DHT22;23829;51.350;17.286;2024-01-25T03:34:36;20.40;35.70
38020;DHT22;23829;51.350;17.286;2024-01-25T03:37:03;20.10;36.00
38020;DHT22;23829;51.350;17.286;2024-01-25T03:39:29;20.10;36.60
38020;DHT22;23829;51.350;17.286;2024-01-25T03:41:55;20.00;36.90
38020;DHT22;23829;51.350;17.286;2024-01-25T03:44:21;20.20;36.30
38020;DHT22;23829;51.350;17.286;2024-01-25T03:46:47;20.20;36.00
38020;DHT22;23829;51.350;17.286;2024-01-25T03:49:14;20.60;35.80
38020;DHT22;23829;51.350;17.286;2024-01-25T03:51:40;20.70;35.60
38020;DHT22;23829;51.350;17.286;2024-01-25T03:54:07;20.80;35.90
38020;DHT22;23829;51.350;17.286;2024-01-25T03:56:33;20.80;36.20
38020;DHT22;23829;51.350;17.286;2024-01-25T03:58:59;20.60;36.40
38020;DHT22;23829;51.350;17.286;2024-01-25T04:01:26;20.10;36.70
38020;DHT22;23829;51.350;17.286;2024-01-25T04:03:52;20.20;37.00
38020;DHT22;23829;51.350;17.286;2024-01-25T04:06:18;19.90;37.40
38020;DHT22;23829;51.350;17.286;2024-01-25T04:08:45;19.50;39.00
38020;DHT22;23829;51.350;17.286;2024-01-25T04:11:11;19.60;39.20
38020;DHT22;23829;51.350;17.286;2024-01-25T04:13:40;19.30;40.10
38020;DHT22;23829;51.350;17.286;2024-01-25T04:16:06;19.40;40.20
38020;DHT22;23829;51.350;17.286;2024-01-25T04:18:32;19.70;39.60
38020;DHT22;23829;51.350;17.286;2024-01-25T04:21:00;20.00;39.60
38020;DHT22;23829;51.350;17.286;2024-01-25T04:23:26;19.90;40.30
38020;DHT22;23829;51.350;17.286;2024-01-25T04:25:52;19.80;40.40
38020;DHT22;23829;51.350;17.286;2024-01-25T04:28:21;20.20;39.40
38020;DHT22;23829;51.350;17.286;2024-01-25T04:30:47;20.50;38.50
38020;DHT22;23829;51.350;17.286;2024-01-25T04:33:13;20.60;38.60
38020;DHT22;23829;51.350;17.286;2024-01-25T04:35:40;21.10;37.90
38020;DHT22;23829;51.350;17.286;2024-01-25T04:38:06;20.20;38.30
38020;DHT22;23829;51.350;17.286;2024-01-25T04:40:32;20.60;38.20
38020;DHT22;23829;51.350;17.286;2024-01-25T04:42:58;20.50;38.30
38020;DHT22;23829;51.350;17.286;2024-01-25T04:45:25;20.20;39.00
38020;DHT22;23829;51.350;17.286;2024-01-25T04:47:51;20.30;39.50
38020;DHT22;23829;51.350;17.286;2024-01-25T04:50:17;19.90;39.90
38020;DHT22;23829;51.350;17.286;2024-01-25T04:52:43;19.70;39.90
38020;DHT22;23829;51.350;17.286;2024-01-25T04:55:10;20.00;40.40
38020;DHT22;23829;51.350;17.286;2024-01-25T04:57:36;20.30;39.70
38020;DHT22;23829;51.350;17.286;2024-01-25T05:00:03;20.40;39.40
38020;DHT22;23829;51.350;17.286;2024-01-25T05:02:29;20.20;39.20
38020;DHT22;23829;51.350;17.286;2024-01-25T05:04:56;19.90;39.90
38020;DHT22;23829;51.350;17.286;2024-01-25T05:07:22;20.60;39.10
38020;DHT22;23829;51.350;17.286;2024-01-25T05:09:48;20.70;38.40
38020;DHT22;23829;51.350;17.286;2024-01-25T05:12:15;20.80;38.20
38020;DHT22;23829;51.350;17.286;2024-01-25T05:14:42;20.40;38.50
38020;DHT22;23829;51.350;17.286;2024-01-25T05:17:08;20.30;38.60
38020;DHT22;23829;51.350;17.286;2024-01-25T05:19:35;20.50;38.20
38020;DHT22;23829;51.350;17.286;2024-01-25T05:22:01;20.50;38.30
38020;DHT22;23829;51.350;17.286;2024-01-25T05:24:33;20.00;38.80
38020;DHT22;23829;51.350;17.286;2024-01-25T05:26:59;19.50;40.10
38020;DHT22;23829;51.350;17.286;2024-01-25T05:29:26;19.80;39.60
38020;DHT22;23829;51.350;17.286;2024-01-25T05:31:52;20.30;39.10
38020;DHT22;23829;51.350;17.286;2024-01-25T05:34:21;20.30;38.40
38020;DHT22;23829;51.350;17.286;2024-01-25T05:36:48;19.50;39.30
38020;DHT22;23829;51.350;17.286;2024-01-25T05:39:15;19.00;40.50
38020;DHT22;23829;51.350;17.286;2024-01-25T05:41:41;18.90;40.90
38020;DHT22;23829;51.350;17.286;2024-01-25T05:44:07;19.30;40.50
38020;DHT22;23829;51.350;17.286;2024-01-25T05:46:33;19.70;39.70
38020;DHT22;23829;51.350;17.286;2024-01-25T05:49:00;20.20;38.70
38020;DHT22;23829;51.350;17.286;2024-01-25T05:51:26;19.90;38.80
38020;DHT22;23829;51.350;17.286;2024-01-25T05:53:52;19.90;39.00
38020;DHT22;23829;51.350;17.286;2024-01-25T05:56:18;20.10;38.70
38020;DHT22;23829;51.350;17.286;2024-01-25T05:58:45;19.80;38.40
38020;DHT22;23829;51.350;17.286;2024-01-25T06:01:11;19.80;38.40
38020;DHT22;23829;51.350;17.286;2024-01-25T06:03:37;19.80;38.80
38020;DHT22;23829;51.350;17.286;2024-01-25T06:06:03;19.70;38.60
38020;DHT22;23829;51.350;17.286;2024-01-25T06:08:30;19.60;39.10
38020;DHT22;23829;51.350;17.286;2024-01-25T06:10:56;19.90;37.90
38020;DHT22;23829;51.350;17.286;2024-01-25T06:13:23;20.10;37.70
38020;DHT22;23829;51.350;17.286;2024-01-25T06:15:49;20.10;37.60
38020;DHT22;23829;51.350;17.286;2024-01-25T06:18:15;20.20;37.80
38020;DHT22;23829;51.350;17.286;2024-01-25T06:20:42;20.20;37.00
38020;DHT22;23829;51.350;17.286;2024-01-25T06:23:10;20.40;37.10
38020;DHT22;23829;51.350;17.286;2024-01-25T06:25:36;20.00;37.20
38020;DHT22;23829;51.350;17.286;2024-01-25T06:28:03;19.60;37.90
38020;DHT22;23829;51.350;17.286;2024-01-25T06:30:30;19.40;38.10
38020;DHT22;23829;51.350;17.286;2024-01-25T06:32:56;19.60;38.40
38020;DHT22;23829;51.350;17.286;2024-01-25T06:35:22;19.80;37.50
38020;DHT22;23829;51.350;17.286;2024-01-25T06:37:49;19.70;38.20
38020;DHT22;23829;51.350;17.286;2024-01-25T06:40:15;19.50;38.40
38020;DHT22;23829;51.350;17.286;2024-01-25T06:42:42;19.60;38.20
38020;DHT22;23829;51.350;17.286;2024-01-25T06:45:08;19.90;37.60
38020;DHT22;23829;51.350;17.286;2024-01-25T06:47:35;19.80;37.30
38020;DHT22;23829;51.350;17.286;2024-01-25T06:50:02;19.40;38.10
38020;DHT22;23829;51.350;17.286;2024-01-25T06:52:28;19.50;38.10
38020;DHT22;23829;51.350;17.286;2024-01-25T06:54:54;18.90;38.80
38020;DHT22;23829;51.350;17.286;2024-01-25T06:57:21;19.10;38.60
38020;DHT22;23829;51.350;17.286;2024-01-25T06:59:47;18.90;38.70
38020;DHT22;23829;51.350;17.286;2024-01-25T07:02:14;19.20;38.50
38020;DHT22;23829;51.350;17.286;2024-01-25T07:04:40;19.50;38.10
38020;DHT22;23829;51.350;17.286;2024-01-25T07:07:07;19.30;38.10
38020;DHT22;23829;51.350;17.286;2024-01-25T07:09:33;19.00;38.70
38020;DHT22;23829;51.350;17.286;2024-01-25T07:12:00;19.10;39.00
38020;DHT22;23829;51.350;17.286;2024-01-25T07:14:26;19.50;38.40
38020;DHT22;23829;51.350;17.286;2024-01-25T07:16:52;19.80;37.90
38020;DHT22;23829;51.350;17.286;2024-01-25T07:19:18;20.10;37.10
38020;DHT22;23829;51.350;17.286;2024-01-25T07:21:45;19.50;38.10
38020;DHT22;23829;51.350;17.286;2024-01-25T07:24:11;19.60;38.50
38020;DHT22;23829;51.350;17.286;2024-01-25T07:26:38;19.50;38.60
38020;DHT22;23829;51.350;17.286;2024-01-25T07:29:04;19.50;38.50
38020;DHT22;23829;51.350;17.286;2024-01-25T07:31:30;20.00;37.50
38020;DHT22;23829;51.350;17.286;2024-01-25T07:33:57;20.50;36.90
38020;DHT22;23829;51.350;17.286;2024-01-25T07:36:23;20.20;36.60
38020;DHT22;23829;51.350;17.286;2024-01-25T07:38:49;20.30;36.70
38020;DHT22;23829;51.350;17.286;2024-01-25T07:41:16;20.50;36.10
38020;DHT22;23829;51.350;17.286;2024-01-25T07:43:43;20.40;35.90
38020;DHT22;23829;51.350;17.286;2024-01-25T07:46:09;20.20;36.00
38020;DHT22;23829;51.350;17.286;2024-01-25T07:48:37;20.00;36.40
38020;DHT22;23829;51.350;17.286;2024-01-25T07:51:11;19.90;36.50
38020;DHT22;23829;51.350;17.286;2024-01-25T07:53:38;20.20;36.10
38020;DHT22;23829;51.350;17.286;2024-01-25T07:56:08;20.00;36.50
38020;DHT22;23829;51.350;17.286;2024-01-25T07:58:37;20.00;35.90
38020;DHT22;23829;51.350;17.286;2024-01-25T08:01:05;20.50;35.70
38020;DHT22;23829;51.350;17.286;2024-01-25T08:03:35;20.20;36.10
38020;DHT22;23829;51.350;17.286;2024-01-25T08:06:02;19.90;36.10
38020;DHT22;23829;51.350;17.286;2024-01-25T08:08:28;19.80;36.40
38020;DHT22;23829;51.350;17.286;2024-01-25T08:10:55;19.60;37.10
38020;DHT22;23829;51.350;17.286;2024-01-25T08:13:21;19.80;36.30
38020;DHT22;23829;51.350;17.286;2024-01-25T08:15:48;19.30;37.20
38020;DHT22;23829;51.350;17.286;2024-01-25T08:18:15;19.00;37.60
38020;DHT22;23829;51.350;17.286;2024-01-25T08:20:41;19.10;38.00
38020;DHT22;23829;51.350;17.286;2024-01-25T08:23:07;19.70;37.30
38020;DHT22;23829;51.350;17.286;2024-01-25T08:25:35;19.70;36.90
38020;DHT22;23829;51.350;17.286;2024-01-25T08:28:01;19.80;36.70
38020;DHT22;23829;51.350;17.286;2024-01-25T08:30:28;19.70;36.60
38020;DHT22;23829;51.350;17.286;2024-01-25T08:32:55;19.90;36.30
38020;DHT22;23829;51.350;17.286;2024-01-25T08:35:21;19.90;36.70
38020;DHT22;23829;51.350;17.286;2024-01-25T08:37:49;19.90;36.70
38020;DHT22;23829;51.350;17.286;2024-01-25T08:40:16;20.20;35.60
38020;DHT22;23829;51.350;17.286;2024-01-25T08:42:42;19.70;36.50
38020;DHT22;23829;51.350;17.286;2024-01-25T08:45:09;20.20;36.00
38020;DHT22;23829;51.350;17.286;2024-01-25T08:47:36;20.20;35.80
38020;DHT22;23829;51.350;17.286;2024-01-25T08:50:03;20.20;35.70
38020;DHT22;23829;51.350;17.286;2024-01-25T08:52:29;20.40;35.70
38020;DHT22;23829;51.350;17.286;2024-01-25T08:54:56;20.20;35.80
38020;DHT22;23829;51.350;17.286;2024-01-25T08:57:22;19.90;36.20
38020;DHT22;23829;51.350;17.286;2024-01-25T08:59:48;19.70;36.30
38020;DHT22;23829;51.350;17.286;2024-01-25T09:02:14;19.90;36.60
38020;DHT22;23829;51.350;17.286;2024-01-25T09:04:41;19.60;36.80
38020;DHT22;23829;51.350;17.286;2024-01-25T09:07:09;19.50;37.20
38020;DHT22;23829;51.350;17.286;2024-01-25T09:09:35;19.50;37.50
38020;DHT22;23829;51.350;17.286;2024-01-25T09:12:01;19.80;37.10
38020;DHT22;23829;51.350;17.286;2024-01-25T09:14:28;19.50;37.10
38020;DHT22;23829;51.350;17.286;2024-01-25T09:16:54;20.00;36.70
38020;DHT22;23829;51.350;17.286;2024-01-25T09:19:20;19.70;37.00
38020;DHT22;23829;51.350;17.286;2024-01-25T09:21:47;19.90;36.80
38020;DHT22;23829;51.350;17.286;2024-01-25T09:24:13;19.80;36.90
38020;DHT22;23829;51.350;17.286;2024-01-25T09:26:39;20.20;36.60
38020;DHT22;23829;51.350;17.286;2024-01-25T09:29:05;20.70;35.40
38020;DHT22;23829;51.350;17.286;2024-01-25T09:31:32;20.70;35.50
38020;DHT22;23829;51.350;17.286;2024-01-25T09:33:58;19.70;36.20
38020;DHT22;23829;51.350;17.286;2024-01-25T09:36:24;19.70;37.20
38020;DHT22;23829;51.350;17.286;2024-01-25T09:38:51;19.60;36.90
38020;DHT22;23829;51.350;17.286;2024-01-25T09:41:17;19.70;36.50
38020;DHT22;23829;51.350;17.286;2024-01-25T09:43:44;19.50;37.00
38020;DHT22;23829;51.350;17.286;2024-01-25T09:46:13;20.00;36.80
38020;DHT22;23829;51.350;17.286;2024-01-25T09:48:42;19.90;36.50
38020;DHT22;23829;51.350;17.286;2024-01-25T09:51:11;20.00;36.40
38020;DHT22;23829;51.350;17.286;2024-01-25T09:53:40;20.50;35.60
38020;DHT22;23829;51.350;17.286;2024-01-25T09:56:10;20.30;35.60
38020;DHT22;23829;51.350;17.286;2024-01-25T09:58:44;19.90;36.10
38020;DHT22;23829;51.350;17.286;2024-01-25T10:01:14;20.20;36.10
38020;DHT22;23829;51.350;17.286;2024-01-25T10:03:45;20.20;35.80
38020;DHT22;23829;51.350;17.286;2024-01-25T10:06:12;20.30;35.60
38020;DHT22;23829;51.350;17.286;2024-01-25T10:08:39;20.70;36.40
38020;DHT22;23829;51.350;17.286;2024-01-25T10:11:06;20.90;34.90
38020;DHT22;23829;51.350;17.286;2024-01-25T10:13:44;20.20;35.60
38020;DHT22;23829;51.350;17.286;2024-01-25T10:16:12;20.50;35.70
38020;DHT22;23829;51.350;17.286;2024-01-25T10:18:40;20.50;35.00
38020;DHT22;23829;51.350;17.286;2024-01-25T10:21:09;20.20;36.20
38020;DHT22;23829;51.350;17.286;2024-01-25T10:23:36;20.40;35.60
38020;DHT22;23829;51.350;17.286;2024-01-25T10:26:02;19.90;35.60
38020;DHT22;23829;51.350;17.286;2024-01-25T10:28:29;20.10;36.90
38020;DHT22;23829;51.350;17.286;2024-01-25T10:30:57;20.10;36.30
38020;DHT22;23829;51.350;17.286;2024-01-25T10:33:25;20.30;36.10
38020;DHT22;23829;51.350;17.286;2024-01-25T10:35:54;20.90;35.40
38020;DHT22;23829;51.350;17.286;2024-01-25T10:38:22;21.00;35.30
38020;DHT22;23829;51.350;17.286;2024-01-25T10:40:49;20.10;36.00
38020;DHT22;23829;51.350;17.286;2024-01-25T10:43:16;20.00;38.40
38020;DHT22;23829;51.350;17.286;2024-01-25T10:45:42;20.20;37.20
38020;DHT22;23829;51.350;17.286;2024-01-25T10:48:09;19.90;37.30
38020;DHT22;23829;51.350;17.286;2024-01-25T10:50:35;20.10;37.10
38020;DHT22;23829;51.350;17.286;2024-01-25T10:53:02;20.20;37.70
38020;DHT22;23829;51.350;17.286;2024-01-25T10:55:28;20.30;37.40
38020;DHT22;23829;51.350;17.286;2024-01-25T10:57:55;20.40;37.20
38020;DHT22;23829;51.350;17.286;2024-01-25T11:00:21;19.60;38.40
38020;DHT22;23829;51.350;17.286;2024-01-25T11:02:50;20.00;38.40
38020;DHT22;23829;51.350;17.286;2024-01-25T11:05:17;20.50;37.20
38020;DHT22;23829;51.350;17.286;2024-01-25T11:07:48;19.90;37.40
38020;DHT22;23829;51.350;17.286;2024-01-25T11:10:17;19.90;37.70
38020;DHT22;23829;51.350;17.286;2024-01-25T11:12:48;20.00;37.30
38020;DHT22;23829;51.350;17.286;2024-01-25T11:15:23;19.90;37.60
38020;DHT22;23829;51.350;17.286;2024-01-25T11:17:51;20.30;36.60
38020;DHT22;23829;51.350;17.286;2024-01-25T11:20:29;20.40;36.60
38020;DHT22;23829;51.350;17.286;2024-01-25T11:23:01;20.30;36.70
38020;DHT22;23829;51.350;17.286;2024-01-25T11:25:32;20.10;37.30
38020;DHT22;23829;51.350;17.286;2024-01-25T11:28:00;20.20;37.20
38020;DHT22;23829;51.350;17.286;2024-01-25T11:30:27;20.00;37.10
38020;DHT22;23829;51.350;17.286;2024-01-25T11:32:54;20.30;37.70
38020;DHT22;23829;51.350;17.286;2024-01-25T11:35:22;20.20;36.70
38020;DHT22;23829;51.350;17.286;2024-01-25T11:37:49;20.20;36.70
38020;DHT22;23829;51.350;17.286;2024-01-25T11:40:18;20.00;36.90
38020;DHT22;23829;51.350;17.286;2024-01-25T11:42:48;19.80;37.60
38020;DHT22;23829;51.350;17.286;2024-01-25T11:45:15;20.10;37.60
38020;DHT22;23829;51.350;17.286;2024-01-25T11:47:42;20.50;37.40
38020;DHT22;23829;51.350;17.286;2024-01-25T11:50:11;20.40;37.30
38020;DHT22;23829;51.350;17.286;2024-01-25T11:52:39;20.80;37.00
38020;DHT22;23829;51.350;17.286;2024-01-25T11:55:07;20.90;35.90
38020;DHT22;23829;51.350;17.286;2024-01-25T11:57:43;21.00;36.40
38020;DHT22;23829;51.350;17.286;2024-01-25T12:00:15;21.10;35.70
38020;DHT22;23829;51.350;17.286;2024-01-25T12:02:42;20.80;35.90
38020;DHT22;23829;51.350;17.286;2024-01-25T12:05:10;21.00;35.50
38020;DHT22;23829;51.350;17.286;2024-01-25T12:07:39;20.80;35.90
38020;DHT22;23829;51.350;17.286;2024-01-25T12:10:07;20.90;35.70
38020;DHT22;23829;51.350;17.286;2024-01-25T12:12:38;21.00;35.30
38020;DHT22;23829;51.350;17.286;2024-01-25T12:15:06;20.30;35.70
38020;DHT22;23829;51.350;17.286;2024-01-25T12:17:34;20.50;36.30
38020;DHT22;23829;51.350;17.286;2024-01-25T12:20:06;20.60;35.80
38020;DHT22;23829;51.350;17.286;2024-01-25T12:22:37;20.80;35.80
38020;DHT22;23829;51.350;17.286;2024-01-25T12:25:07;20.90;35.40
38020;DHT22;23829;51.350;17.286;2024-01-25T12:27:34;20.30;35.90
38020;DHT22;23829;51.350;17.286;2024-01-25T12:30:00;20.70;35.40
38020;DHT22;23829;51.350;17.286;2024-01-25T12:32:27;20.60;35.80
38020;DHT22;23829;51.350;17.286;2024-01-25T12:35:00;20.20;35.70
38020;DHT22;23829;51.350;17.286;2024-01-25T12:37:27;20.00;36.50
38020;DHT22;23829;51.350;17.286;2024-01-25T12:39:54;20.20;36.30
38020;DHT22;23829;51.350;17.286;2024-01-25T12:42:21;20.40;36.30
38020;DHT22;23829;51.350;17.286;2024-01-25T12:44:47;20.30;36.20
38020;DHT22;23829;51.350;17.286;2024-01-25T12:47:14;20.40;36.50
38020;DHT22;23829;51.350;17.286;2024-01-25T12:49:41;20.20;36.40
38020;DHT22;23829;51.350;17.286;2024-01-25T12:52:09;19.80;36.70
38020;DHT22;23829;51.350;17.286;2024-01-25T12:54:36;20.10;36.50
38020;DHT22;23829;51.350;17.286;2024-01-25T12:57:04;20.40;36.10
38020;DHT22;23829;51.350;17.286;2024-01-25T12:59:32;20.70;35.50
38020;DHT22;23829;51.350;17.286;2024-01-25T13:01:58;20.80;35.20
38020;DHT22;23829;51.350;17.286;2024-01-25T13:04:25;20.90;35.10
38020;DHT22;23829;51.350;17.286;2024-01-25T13:06:53;20.30;35.50
38020;DHT22;23829;51.350;17.286;2024-01-25T13:09:21;19.60;36.20
38020;DHT22;23829;51.350;17.286;2024-01-25T13:11:48;19.60;37.00
38020;DHT22;23829;51.350;17.286;2024-01-25T13:14:14;19.40;36.90
38020;DHT22;23829;51.350;17.286;2024-01-25T13:16:40;19.10;37.70
38020;DHT22;23829;51.350;17.286;2024-01-25T13:19:07;19.60;37.10
38020;DHT22;23829;51.350;17.286;2024-01-25T13:21:33;20.10;36.00
38020;DHT22;23829;51.350;17.286;2024-01-25T13:24:00;20.10;35.80
38020;DHT22;23829;51.350;17.286;2024-01-25T13:26:29;20.40;35.90
38020;DHT22;23829;51.350;17.286;2024-01-25T13:28:55;20.20;35.50
38020;DHT22;23829;51.350;17.286;2024-01-25T13:31:22;20.30;35.60
38020;DHT22;23829;51.350;17.286;2024-01-25T13:33:48;20.10;36.00
38020;DHT22;23829;51.350;17.286;2024-01-25T13:36:14;19.60;36.30
38020;DHT22;23829;51.350;17.286;2024-01-25T13:38:41;19.40;37.50
38020;DHT22;23829;51.350;17.286;2024-01-25T13:41:07;19.70;36.40
38020;DHT22;23829;51.350;17.286;2024-01-25T13:43:33;20.50;35.30
38020;DHT22;23829;51.350;17.286;2024-01-25T13:46:00;20.70;34.80
38020;DHT22;23829;51.350;17.286;2024-01-25T13:48:26;20.80;35.00
38020;DHT22;23829;51.350;17.286;2024-01-25T13:50:52;20.10;35.30
38020;DHT22;23829;51.350;17.286;2024-01-25T13:53:19;20.60;35.40
38020;DHT22;23829;51.350;17.286;2024-01-25T13:55:45;20.20;35.70
38020;DHT22;23829;51.350;17.286;2024-01-25T13:58:11;20.40;35.50
38020;DHT22;23829;51.350;17.286;2024-01-25T14:00:38;20.40;35.20
38020;DHT22;23829;51.350;17.286;2024-01-25T14:03:04;20.30;35.20
38020;DHT22;23829;51.350;17.286;2024-01-25T14:05:31;20.00;35.50
38020;DHT22;23829;51.350;17.286;2024-01-25T14:07:57;19.70;36.20
38020;DHT22;23829;51.350;17.286;2024-01-25T14:10:25;19.60;36.30
38020;DHT22;23829;51.350;17.286;2024-01-25T14:12:54;19.40;37.10
38020;DHT22;23829;51.350;17.286;2024-01-25T14:15:21;18.90;37.50
38020;DHT22;23829;51.350;17.286;2024-01-25T14:17:47;19.60;36.70
38020;DHT22;23829;51.350;17.286;2024-01-25T14:20:13;20.20;35.70
38020;DHT22;23829;51.350;17.286;2024-01-25T14:22:39;20.00;36.00
38020;DHT22;23829;51.350;17.286;2024-01-25T14:25:06;20.40;35.30
38020;DHT22;23829;51.350;17.286;2024-01-25T14:27:32;20.60;34.80
38020;DHT22;23829;51.350;17.286;2024-01-25T14:29:59;20.40;34.70
38020;DHT22;23829;51.350;17.286;2024-01-25T14:32:26;19.90;35.80
38020;DHT22;23829;51.350;17.286;2024-01-25T14:34:52;20.00;35.40
38020;DHT22;23829;51.350;17.286;2024-01-25T14:37:19;19.70;35.60
38020;DHT22;23829;51.350;17.286;2024-01-25T14:39:45;20.20;35.30
38020;DHT22;23829;51.350;17.286;2024-01-25T14:42:12;19.20;36.50
38020;DHT22;23829;51.350;17.286;2024-01-25T14:44:39;19.60;36.60
38020;DHT22;23829;51.350;17.286;2024-01-25T14:47:08;19.50;36.50
38020;DHT22;23829;51.350;17.286;2024-01-25T14:49:35;19.80;36.00
38020;DHT22;23829;51.350;17.286;2024-01-25T14:52:02;19.90;36.00
38020;DHT22;23829;51.350;17.286;2024-01-25T14:54:29;20.30;36.20
38020;DHT22;23829;51.350;17.286;2024-01-25T14:56:55;20.30;35.00
38020;DHT22;23829;51.350;17.286;2024-01-25T14:59:21;20.20;35.00
38020;DHT22;23829;51.350;17.286;2024-01-25T15:01:47;20.00;35.40
38020;DHT22;23829;51.350;17.286;2024-01-25T15:04:14;20.00;35.50
38020;DHT22;23829;51.350;17.286;2024-01-25T15:06:43;20.10;35.50
38020;DHT22;23829;51.350;17.286;2024-01-25T15:09:10;20.00;35.50
38020;DHT22;23829;51.350;17.286;2024-01-25T15:11:36;20.40;35.00
38020;DHT22;23829;51.350;17.286;2024-01-25T15:14:03;20.20;34.90